createdAt,value
2022-09-12T00:00:44.667Z,967.06
2022-09-12T00:01:34.713Z,967.08
2022-09-12T00:02:24.677Z,967.15
2022-09-12T00:03:14.623Z,967.13
2022-09-12T00:04:04.641Z,967.10
2022-09-12T00:04:54.612Z,967.09
2022-09-12T00:05:44.616Z,967.13
2022-09-12T00:06:34.613Z,967.11
2022-09-12T00:07:24.604Z,967.12
2022-09-12T00:08:14.599Z,967.08
2022-09-12T00:09:04.592Z,967.10
2022-09-12T00:09:54.567Z,967.07
2022-09-12T00:10:44.554Z,967.04
2022-09-12T00:11:34.541Z,967.05
2022-09-12T00:12:24.544Z,967.04
2022-09-12T00:13:14.519Z,967.02
2022-09-12T00:14:04.530Z,967.02
2022-09-12T00:14:54.510Z,967.04
2022-09-12T00:15:44.495Z,967.02
2022-09-12T00:16:34.540Z,967.02
2022-09-12T00:17:24.501Z,966.99
2022-09-12T00:18:14.471Z,967.03
2022-09-12T00:19:04.472Z,966.98
2022-09-12T00:19:54.454Z,967.01
2022-09-12T00:20:44.449Z,966.98
2022-09-12T00:21:34.441Z,967.00
2022-09-12T00:22:24.440Z,966.99
2022-09-12T00:23:14.401Z,966.98
2022-09-12T00:24:04.417Z,967.02
2022-09-12T00:24:54.380Z,966.99
2022-09-12T00:25:44.391Z,966.95
2022-09-12T00:26:34.383Z,966.92
2022-09-12T00:27:24.380Z,966.95
2022-09-12T00:28:14.357Z,966.94
2022-09-12T00:29:04.348Z,966.98
2022-09-12T00:29:54.332Z,966.94
2022-09-12T00:30:44.335Z,966.98
2022-09-12T00:31:34.355Z,966.94
2022-09-12T00:32:24.329Z,966.92
2022-09-12T00:33:14.300Z,966.92
2022-09-12T00:34:04.279Z,966.94
2022-09-12T00:34:54.269Z,966.93
2022-09-12T00:35:44.270Z,966.89
2022-09-12T00:36:34.261Z,966.92
2022-09-12T00:37:24.279Z,966.90
2022-09-12T00:38:14.245Z,966.92
2022-09-12T00:39:04.248Z,966.88
2022-09-12T00:39:54.233Z,966.90
2022-09-12T00:40:44.218Z,966.93
2022-09-12T00:41:34.199Z,966.96
2022-09-12T00:42:24.229Z,966.91
2022-09-12T00:43:14.190Z,966.92
2022-09-12T00:44:04.169Z,966.92
2022-09-12T00:44:54.159Z,966.91
2022-09-12T00:45:44.194Z,966.91
2022-09-12T00:46:34.147Z,966.88
2022-09-12T00:47:24.166Z,966.91
2022-09-12T00:48:14.119Z,966.90
2022-09-12T00:49:04.121Z,966.88
2022-09-12T00:49:54.114Z,966.88
2022-09-12T00:50:44.102Z,966.87
2022-09-12T00:51:34.128Z,966.87
2022-09-12T00:52:24.100Z,966.83
2022-09-12T00:53:14.059Z,966.84
2022-09-12T00:54:04.069Z,966.83
2022-09-12T00:54:54.048Z,966.82
2022-09-12T00:55:44.051Z,966.84
2022-09-12T00:56:34.050Z,966.84
2022-09-12T00:57:24.028Z,966.86
2022-09-12T00:58:14.027Z,966.84
2022-09-12T00:59:04.003Z,966.86
2022-09-12T00:59:53.989Z,966.85
2022-09-12T01:00:44.060Z,966.85
2022-09-12T01:01:34.068Z,966.90
2022-09-12T01:02:24.053Z,966.86
2022-09-12T01:03:13.956Z,966.85
2022-09-12T01:04:03.960Z,966.83
2022-09-12T01:04:53.943Z,966.80
2022-09-12T01:05:43.944Z,966.82
2022-09-12T01:06:33.941Z,966.80
2022-09-12T01:07:23.926Z,966.78
2022-09-12T01:08:13.896Z,966.79
2022-09-12T01:09:03.897Z,966.78
2022-09-12T01:09:53.896Z,966.79
2022-09-12T01:10:43.868Z,966.77
2022-09-12T01:11:33.888Z,966.77
2022-09-12T01:12:23.896Z,966.74
2022-09-12T01:13:13.845Z,966.75
2022-09-12T01:14:03.825Z,966.73
2022-09-12T01:14:53.818Z,966.70
2022-09-12T01:15:43.840Z,966.67
2022-09-12T01:16:33.857Z,966.69
2022-09-12T01:17:23.836Z,966.72
2022-09-12T01:18:13.816Z,966.66
2022-09-12T01:19:03.778Z,966.69
2022-09-12T01:19:53.767Z,966.71
2022-09-12T01:20:43.775Z,966.63
2022-09-12T01:21:33.760Z,966.67
2022-09-12T01:22:23.755Z,966.66
2022-09-12T01:23:13.725Z,966.65
2022-09-12T01:24:03.734Z,966.62
2022-09-12T01:24:53.714Z,966.63
2022-09-12T01:25:43.703Z,966.61
2022-09-12T01:26:33.711Z,966.66
2022-09-12T01:27:23.708Z,966.63
2022-09-12T01:28:13.678Z,966.61
2022-09-12T01:29:03.676Z,966.60
2022-09-12T01:29:53.655Z,966.61
2022-09-12T01:30:43.657Z,966.65
2022-09-12T01:31:33.633Z,966.63
2022-09-12T01:32:23.691Z,966.64
2022-09-12T01:33:13.614Z,966.62
2022-09-12T01:34:03.604Z,966.61
2022-09-12T01:34:53.603Z,966.62
2022-09-12T01:35:43.602Z,966.59
2022-09-12T01:36:33.577Z,966.62
2022-09-12T01:37:23.590Z,966.60
2022-09-12T01:38:13.557Z,966.60
2022-09-12T01:39:03.557Z,966.60
2022-09-12T01:39:53.602Z,966.57
2022-09-12T01:40:43.536Z,966.59
2022-09-12T01:41:33.525Z,966.60
2022-09-12T01:42:23.527Z,966.59
2022-09-12T01:43:13.498Z,966.54
2022-09-12T01:44:03.513Z,966.59
2022-09-12T01:44:53.480Z,966.58
2022-09-12T01:45:43.522Z,966.56
2022-09-12T01:46:33.475Z,966.55
2022-09-12T01:47:23.487Z,966.54
2022-09-12T01:48:13.463Z,966.52
2022-09-12T01:49:03.453Z,966.48
2022-09-12T01:49:53.450Z,966.52
2022-09-12T01:50:43.425Z,966.53
2022-09-12T01:51:33.423Z,966.52
2022-09-12T01:52:23.423Z,966.49
2022-09-12T01:53:13.399Z,966.49
2022-09-12T01:54:03.381Z,966.45
2022-09-12T01:54:53.370Z,966.46
2022-09-12T01:55:43.372Z,966.47
2022-09-12T01:56:33.363Z,966.46
2022-09-12T01:57:23.377Z,966.47
2022-09-12T01:58:13.354Z,966.46
2022-09-12T01:59:03.342Z,966.43
2022-09-12T01:59:53.312Z,966.45
2022-09-12T02:00:43.332Z,966.40
2022-09-12T02:01:33.339Z,966.42
2022-09-12T02:02:23.348Z,966.40
2022-09-12T02:03:13.273Z,966.39
2022-09-12T02:04:03.289Z,966.38
2022-09-12T02:04:53.272Z,966.39
2022-09-12T02:05:43.256Z,966.41
2022-09-12T02:06:33.239Z,966.38
2022-09-12T02:07:23.250Z,966.37
2022-09-12T02:08:13.232Z,966.39
2022-09-12T02:09:03.212Z,966.40
2022-09-12T02:09:53.203Z,966.35
2022-09-12T02:10:43.217Z,966.37
2022-09-12T02:11:33.201Z,966.32
2022-09-12T02:12:23.221Z,966.32
2022-09-12T02:13:13.180Z,966.36
2022-09-12T02:14:03.178Z,966.30
2022-09-12T02:14:53.155Z,966.28
2022-09-12T02:15:43.160Z,966.28
2022-09-12T02:16:33.165Z,966.25
2022-09-12T02:17:23.133Z,966.27
2022-09-12T02:18:13.100Z,966.30
2022-09-12T02:19:03.119Z,966.26
2022-09-12T02:19:53.103Z,966.27
2022-09-12T02:20:48.454Z,966.29
2022-09-12T02:21:33.096Z,966.32
2022-09-12T02:22:23.081Z,966.27
2022-09-12T02:23:13.070Z,966.24
2022-09-12T02:24:03.072Z,966.24
2022-09-12T02:24:53.039Z,966.26
2022-09-12T02:25:43.028Z,966.21
2022-09-12T02:26:33.015Z,966.27
2022-09-12T02:27:23.030Z,966.28
2022-09-12T02:28:12.999Z,966.24
2022-09-12T02:29:03.006Z,966.25
2022-09-12T02:29:52.981Z,966.26
2022-09-12T02:30:43.023Z,966.19
2022-09-12T02:31:32.957Z,966.20
2022-09-12T02:32:22.978Z,966.19
2022-09-12T02:33:12.951Z,966.20
2022-09-12T02:34:02.918Z,966.21
2022-09-12T02:34:52.917Z,966.19
2022-09-12T02:35:42.919Z,966.22
2022-09-12T02:36:32.932Z,966.21
2022-09-12T02:37:22.907Z,966.24
2022-09-12T02:38:12.898Z,966.22
2022-09-12T02:39:02.892Z,966.22
2022-09-12T02:39:52.883Z,966.18
2022-09-12T02:40:42.865Z,966.18
2022-09-12T02:41:32.846Z,966.18
2022-09-12T02:42:22.848Z,966.18
2022-09-12T02:43:12.827Z,966.21
2022-09-12T02:44:02.862Z,966.22
2022-09-12T02:44:52.809Z,966.18
2022-09-12T02:45:42.818Z,966.15
2022-09-12T02:46:32.804Z,966.16
2022-09-12T02:47:22.796Z,966.16
2022-09-12T02:48:13.518Z,966.17
2022-09-12T02:49:02.750Z,966.16
2022-09-12T02:49:52.757Z,966.15
2022-09-12T02:50:42.750Z,966.14
2022-09-12T02:51:32.743Z,966.21
2022-09-12T02:52:22.793Z,966.17
2022-09-12T02:53:12.734Z,966.13
2022-09-12T02:54:02.718Z,966.20
2022-09-12T02:54:52.705Z,966.17
2022-09-12T02:55:42.692Z,966.18
2022-09-12T02:56:32.690Z,966.16
2022-09-12T02:57:23.330Z,966.13
2022-09-12T02:58:12.685Z,966.14
2022-09-12T02:59:02.655Z,966.11
2022-09-12T02:59:52.654Z,966.11
2022-09-12T03:00:42.637Z,966.11
2022-09-12T03:01:32.654Z,966.12
2022-09-12T03:02:22.639Z,966.07
2022-09-12T03:03:12.618Z,966.07
2022-09-12T03:04:02.589Z,966.06
2022-09-12T03:04:52.594Z,966.09
2022-09-12T03:05:42.567Z,966.08
2022-09-12T03:06:32.567Z,966.04
2022-09-12T03:07:22.591Z,966.08
2022-09-12T03:08:12.549Z,966.04
2022-09-12T03:09:02.547Z,966.03
2022-09-12T03:09:52.535Z,966.04
2022-09-12T03:10:42.515Z,966.06
2022-09-12T03:11:32.532Z,966.08
2022-09-12T03:12:22.564Z,966.03
2022-09-12T03:13:12.496Z,966.09
2022-09-12T03:14:02.494Z,966.10
2022-09-12T03:14:52.488Z,966.10
2022-09-12T03:15:42.455Z,966.12
2022-09-12T03:16:32.504Z,966.14
2022-09-12T03:17:22.497Z,966.13
2022-09-12T03:18:12.442Z,966.14
2022-09-12T03:19:02.433Z,966.13
2022-09-12T03:19:52.426Z,966.16
2022-09-12T03:20:42.440Z,966.17
2022-09-12T03:21:32.396Z,966.13
2022-09-12T03:22:22.407Z,966.18
2022-09-12T03:23:12.393Z,966.10
2022-09-12T03:24:02.359Z,966.11
2022-09-12T03:24:52.378Z,966.08
2022-09-12T03:25:42.351Z,966.09
2022-09-12T03:26:32.337Z,966.12
2022-09-12T03:27:22.348Z,966.11
2022-09-12T03:28:12.328Z,966.12
2022-09-12T03:29:02.330Z,966.11
2022-09-12T03:29:52.307Z,966.15
2022-09-12T03:30:42.338Z,966.10
2022-09-12T03:31:32.301Z,966.10
2022-09-12T03:32:22.297Z,966.15
2022-09-12T03:33:12.277Z,966.15
2022-09-12T03:34:02.244Z,966.18
2022-09-12T03:34:52.244Z,966.12
2022-09-12T03:35:42.234Z,966.14
2022-09-12T03:36:32.295Z,966.16
2022-09-12T03:37:22.222Z,966.11
2022-09-12T03:38:12.223Z,966.16
2022-09-12T03:39:02.184Z,966.17
2022-09-12T03:39:52.234Z,966.16
2022-09-12T03:40:42.211Z,966.11
2022-09-12T03:41:32.170Z,966.15
2022-09-12T03:42:22.179Z,966.09
2022-09-12T03:43:12.168Z,966.11
2022-09-12T03:44:02.218Z,966.10
2022-09-12T03:44:52.147Z,966.10
2022-09-12T03:45:42.128Z,966.11
2022-09-12T03:46:32.126Z,966.12
2022-09-12T03:47:22.113Z,966.15
2022-09-12T03:48:12.111Z,966.13
2022-09-12T03:49:02.093Z,966.15
2022-09-12T03:49:52.083Z,966.12
2022-09-12T03:50:42.108Z,966.13
2022-09-12T03:51:32.063Z,966.14
2022-09-12T03:52:22.063Z,966.09
2022-09-12T03:53:15.265Z,966.17
2022-09-12T03:54:03.034Z,966.12
2022-09-12T03:54:52.033Z,966.08
2022-09-12T03:55:42.024Z,966.10
2022-09-12T03:56:32.002Z,966.16
2022-09-12T03:57:22.015Z,966.16
2022-09-12T03:58:11.981Z,966.20
2022-09-12T03:59:01.972Z,966.10
2022-09-12T03:59:51.969Z,966.14
2022-09-12T04:00:41.952Z,966.14
2022-09-12T04:01:32.033Z,966.12
2022-09-12T04:02:21.968Z,966.16
2022-09-12T04:03:11.920Z,966.14
2022-09-12T04:04:01.915Z,966.15
2022-09-12T04:04:51.913Z,966.13
2022-09-12T04:05:41.901Z,966.14
2022-09-12T04:06:31.894Z,966.14
2022-09-12T04:07:21.883Z,966.16
2022-09-12T04:08:11.892Z,966.15
2022-09-12T04:09:01.873Z,966.17
2022-09-12T04:09:51.870Z,966.15
2022-09-12T04:10:41.845Z,966.14
2022-09-12T04:11:31.842Z,966.14
2022-09-12T04:12:21.842Z,966.14
2022-09-12T04:13:11.811Z,966.15
2022-09-12T04:14:01.809Z,966.10
2022-09-12T04:14:51.801Z,966.11
2022-09-12T04:15:41.804Z,966.14
2022-09-12T04:16:31.837Z,966.13
2022-09-12T04:17:21.778Z,966.18
2022-09-12T04:18:11.791Z,966.15
2022-09-12T04:19:01.760Z,966.10
2022-09-12T04:19:51.752Z,966.11
2022-09-12T04:20:41.730Z,966.14
2022-09-12T04:21:31.729Z,966.16
2022-09-12T04:22:21.725Z,966.15
2022-09-12T04:23:11.753Z,966.08
2022-09-12T04:24:01.682Z,966.10
2022-09-12T04:24:51.687Z,966.15
2022-09-12T04:25:41.676Z,966.12
2022-09-12T04:26:31.678Z,966.13
2022-09-12T04:27:21.667Z,966.09
2022-09-12T04:28:11.658Z,966.12
2022-09-12T04:29:01.627Z,966.07
2022-09-12T04:29:51.716Z,966.09
2022-09-12T04:30:41.630Z,966.07
2022-09-12T04:31:31.628Z,966.10
2022-09-12T04:32:21.608Z,966.07
2022-09-12T04:33:11.609Z,966.05
2022-09-12T04:34:01.586Z,966.08
2022-09-12T04:34:51.601Z,966.08
2022-09-12T04:35:41.553Z,966.06
2022-09-12T04:36:31.579Z,966.10
2022-09-12T04:37:21.551Z,966.09
2022-09-12T04:38:11.546Z,966.08
2022-09-12T04:39:01.519Z,966.09
2022-09-12T04:39:51.548Z,966.10
2022-09-12T04:40:41.496Z,966.12
2022-09-12T04:41:31.530Z,966.10
2022-09-12T04:42:21.491Z,966.07
2022-09-12T04:43:14.566Z,966.07
2022-09-12T04:44:01.476Z,966.07
2022-09-12T04:44:51.460Z,966.09
2022-09-12T04:45:41.474Z,966.07
2022-09-12T04:46:31.472Z,966.10
2022-09-12T04:47:21.426Z,966.13
2022-09-12T04:48:11.441Z,966.09
2022-09-12T04:49:01.396Z,966.11
2022-09-12T04:49:51.409Z,966.10
2022-09-12T04:50:41.406Z,966.05
2022-09-12T04:51:31.404Z,966.10
2022-09-12T04:52:21.387Z,966.07
2022-09-12T04:53:11.380Z,966.08
2022-09-12T04:54:01.358Z,966.02
2022-09-12T04:54:51.360Z,966.04
2022-09-12T04:55:41.346Z,966.08
2022-09-12T04:56:31.357Z,966.05
2022-09-12T04:57:21.307Z,966.06
2022-09-12T04:58:11.342Z,966.04
2022-09-12T04:59:01.305Z,966.03
2022-09-12T04:59:51.285Z,966.04
2022-09-12T05:00:41.275Z,966.01
2022-09-12T05:01:31.385Z,966.06
2022-09-12T05:02:21.291Z,965.99
2022-09-12T05:03:11.246Z,966.02
2022-09-12T05:04:01.247Z,966.01
2022-09-12T05:04:51.234Z,965.99
2022-09-12T05:05:41.225Z,966.01
2022-09-12T05:06:31.244Z,966.01
2022-09-12T05:07:21.229Z,966.00
2022-09-12T05:08:11.187Z,965.97
2022-09-12T05:09:01.190Z,965.97
2022-09-12T05:09:51.178Z,965.98
2022-09-12T05:10:41.176Z,965.98
2022-09-12T05:11:53.057Z,966.00
2022-09-12T05:12:22.154Z,966.00
2022-09-12T05:13:11.196Z,966.05
2022-09-12T05:14:01.131Z,966.03
2022-09-12T05:14:51.143Z,965.98
2022-09-12T05:15:41.116Z,966.00
2022-09-12T05:16:31.133Z,966.01
2022-09-12T05:17:21.121Z,966.02
2022-09-12T05:18:11.074Z,966.01
2022-09-12T05:19:01.083Z,966.02
2022-09-12T05:19:51.114Z,966.04
2022-09-12T05:20:41.061Z,966.02
2022-09-12T05:21:31.052Z,965.98
2022-09-12T05:22:21.036Z,965.99
2022-09-12T05:23:11.033Z,965.99
2022-09-12T05:24:01.458Z,966.01
2022-09-12T05:24:51.033Z,966.03
2022-09-12T05:25:40.994Z,966.04
2022-09-12T05:26:31.011Z,966.04
2022-09-12T05:27:20.989Z,966.06
2022-09-12T05:28:10.963Z,966.04
2022-09-12T05:29:00.964Z,966.03
2022-09-12T05:29:50.963Z,966.02
2022-09-12T05:30:41.015Z,966.00
2022-09-12T05:31:30.942Z,966.00
2022-09-12T05:32:20.953Z,965.98
2022-09-12T05:33:10.911Z,965.99
2022-09-12T05:34:00.940Z,966.01
2022-09-12T05:34:50.904Z,966.07
2022-09-12T05:35:40.879Z,966.05
2022-09-12T05:36:30.881Z,966.04
2022-09-12T05:37:20.863Z,966.05
2022-09-12T05:38:10.851Z,966.00
2022-09-12T05:39:00.861Z,966.02
2022-09-12T05:39:50.905Z,966.04
2022-09-12T05:40:40.823Z,966.06
2022-09-12T05:41:30.854Z,966.08
2022-09-12T05:42:20.820Z,966.05
2022-09-12T05:43:10.811Z,966.11
2022-09-12T05:44:00.789Z,966.11
2022-09-12T05:44:50.790Z,966.12
2022-09-12T05:45:40.816Z,966.11
2022-09-12T05:46:30.779Z,966.13
2022-09-12T05:47:20.758Z,966.12
2022-09-12T05:48:10.761Z,966.14
2022-09-12T05:49:00.729Z,966.15
2022-09-12T05:49:50.718Z,966.19
2022-09-12T05:50:40.721Z,966.15
2022-09-12T05:51:30.721Z,966.20
2022-09-12T05:52:20.723Z,966.19
2022-09-12T05:53:10.704Z,966.15
2022-09-12T05:54:00.661Z,966.20
2022-09-12T05:54:50.663Z,966.22
2022-09-12T05:55:40.659Z,966.18
2022-09-12T05:56:30.663Z,966.17
2022-09-12T05:57:20.648Z,966.21
2022-09-12T05:58:10.631Z,966.19
2022-09-12T05:59:00.609Z,966.21
2022-09-12T05:59:50.612Z,966.22
2022-09-12T06:00:40.609Z,966.21
2022-09-12T06:01:30.659Z,966.25
2022-09-12T06:02:20.629Z,966.26
2022-09-12T06:03:10.578Z,966.26
2022-09-12T06:04:00.571Z,966.29
2022-09-12T06:04:50.571Z,966.27
2022-09-12T06:05:40.560Z,966.28
2022-09-12T06:06:30.539Z,966.26
2022-09-12T06:07:20.536Z,966.30
2022-09-12T06:08:10.520Z,966.28
2022-09-12T06:09:00.518Z,966.30
2022-09-12T06:09:50.487Z,966.28
2022-09-12T06:10:40.507Z,966.28
2022-09-12T06:11:30.473Z,966.31
2022-09-12T06:12:20.478Z,966.31
2022-09-12T06:13:10.447Z,966.31
2022-09-12T06:14:00.464Z,966.28
2022-09-12T06:14:50.426Z,966.27
2022-09-12T06:15:40.426Z,966.28
2022-09-12T06:16:30.519Z,966.25
2022-09-12T06:17:20.426Z,966.27
2022-09-12T06:18:10.397Z,966.25
2022-09-12T06:19:00.387Z,966.29
2022-09-12T06:19:50.382Z,966.26
2022-09-12T06:20:40.385Z,966.26
2022-09-12T06:21:30.367Z,966.21
2022-09-12T06:22:20.363Z,966.23
2022-09-12T06:23:10.345Z,966.25
2022-09-12T06:24:00.357Z,966.24
2022-09-12T06:24:52.771Z,966.23
2022-09-12T06:25:40.325Z,966.20
2022-09-12T06:26:30.307Z,966.22
2022-09-12T06:27:20.304Z,966.20
2022-09-12T06:28:10.316Z,966.24
2022-09-12T06:29:00.302Z,966.23
2022-09-12T06:29:50.275Z,966.18
2022-09-12T06:30:40.269Z,966.21
2022-09-12T06:31:30.237Z,966.22
2022-09-12T06:32:20.258Z,966.16
2022-09-12T06:33:10.255Z,966.14
2022-09-12T06:34:00.238Z,966.15
2022-09-12T06:34:50.212Z,966.15
2022-09-12T06:35:40.208Z,966.14
2022-09-12T06:36:30.194Z,966.16
2022-09-12T06:37:20.215Z,966.14
2022-09-12T06:38:10.177Z,966.12
2022-09-12T06:39:00.161Z,966.07
2022-09-12T06:39:50.232Z,966.12
2022-09-12T06:40:40.156Z,966.10
2022-09-12T06:41:30.162Z,966.12
2022-09-12T06:42:20.136Z,966.09
2022-09-12T06:43:10.115Z,966.10
2022-09-12T06:44:00.137Z,966.08
2022-09-12T06:44:50.094Z,966.06
2022-09-12T06:45:40.146Z,966.07
2022-09-12T06:46:30.081Z,966.03
2022-09-12T06:47:20.086Z,966.03
2022-09-12T06:48:10.053Z,966.03
2022-09-12T06:49:00.057Z,966.08
2022-09-12T06:49:50.054Z,966.04
2022-09-12T06:50:40.043Z,966.01
2022-09-12T06:51:30.036Z,966.07
2022-09-12T06:52:20.024Z,966.05
2022-09-12T06:53:10.003Z,966.05
2022-09-12T06:54:00.018Z,966.05
2022-09-12T06:54:49.974Z,966.06
2022-09-12T06:55:39.990Z,966.00
2022-09-12T06:56:29.973Z,966.00
2022-09-12T06:57:19.984Z,966.01
2022-09-12T06:58:09.982Z,965.99
2022-09-12T06:58:59.963Z,965.99
2022-09-12T06:59:49.925Z,965.97
2022-09-12T07:00:39.951Z,966.02
2022-09-12T07:01:29.992Z,966.01
2022-09-12T07:02:19.990Z,966.08
2022-09-12T07:03:09.921Z,966.04
2022-09-12T07:03:59.884Z,966.04
2022-09-12T07:04:49.890Z,966.02
2022-09-12T07:05:39.867Z,966.00
2022-09-12T07:06:29.858Z,965.98
2022-09-12T07:07:19.853Z,965.97
2022-09-12T07:08:09.847Z,965.94
2022-09-12T07:08:59.828Z,965.92
2022-09-12T07:09:49.821Z,965.92
2022-09-12T07:10:39.823Z,965.95
2022-09-12T07:11:29.790Z,965.91
2022-09-12T07:12:19.811Z,965.91
2022-09-12T07:13:09.791Z,965.92
2022-09-12T07:13:59.771Z,965.90
2022-09-12T07:14:49.758Z,965.91
2022-09-12T07:15:39.777Z,965.90
2022-09-12T07:16:30.392Z,965.83
2022-09-12T07:17:19.770Z,965.86
2022-09-12T07:18:09.730Z,965.86
2022-09-12T07:18:59.729Z,965.85
2022-09-12T07:19:49.848Z,965.87
2022-09-12T07:20:39.701Z,965.88
2022-09-12T07:21:29.690Z,965.86
2022-09-12T07:22:19.701Z,965.91
2022-09-12T07:23:09.660Z,965.89
2022-09-12T07:23:59.670Z,965.84
2022-09-12T07:24:49.671Z,965.83
2022-09-12T07:25:39.641Z,965.84
2022-09-12T07:26:29.640Z,965.83
2022-09-12T07:27:19.661Z,965.77
2022-09-12T07:28:09.618Z,965.79
2022-09-12T07:29:50.602Z,965.75
2022-09-12T07:30:39.682Z,965.74
2022-09-12T07:31:29.580Z,965.74
2022-09-12T07:32:19.589Z,965.70
2022-09-12T07:33:09.558Z,965.72
2022-09-12T07:33:59.541Z,965.75
2022-09-12T07:34:49.533Z,965.74
2022-09-12T07:35:39.552Z,965.75
2022-09-12T07:36:29.519Z,965.75
2022-09-12T07:37:19.523Z,965.75
2022-09-12T07:38:09.509Z,965.75
2022-09-12T07:38:59.497Z,965.73
2022-09-12T07:39:49.505Z,965.71
2022-09-12T07:40:39.467Z,965.72
2022-09-12T07:41:29.464Z,965.72
2022-09-12T07:42:19.477Z,965.75
2022-09-12T07:43:09.431Z,965.69
2022-09-12T07:43:59.436Z,965.70
2022-09-12T07:44:49.421Z,965.70
2022-09-12T07:45:39.469Z,965.71
2022-09-12T07:46:29.418Z,965.73
2022-09-12T07:47:19.521Z,965.73
2022-09-12T07:48:09.392Z,965.70
2022-09-12T07:48:59.374Z,965.70
2022-09-12T07:49:49.381Z,965.72
2022-09-12T07:50:44.520Z,965.67
2022-09-12T07:51:30.355Z,965.67
2022-09-12T07:52:19.368Z,965.64
2022-09-12T07:53:09.318Z,965.67
2022-09-12T07:53:59.318Z,965.68
2022-09-12T07:54:49.318Z,965.64
2022-09-12T07:55:39.309Z,965.67
2022-09-12T07:56:31.912Z,965.67
2022-09-12T07:57:19.299Z,965.65
2022-09-12T07:58:09.276Z,965.69
2022-09-12T07:58:59.259Z,965.70
2022-09-12T07:59:52.958Z,965.73
2022-09-12T08:00:39.257Z,965.69
2022-09-12T08:01:29.307Z,965.69
2022-09-12T08:02:19.324Z,965.72
2022-09-12T08:03:09.207Z,965.71
2022-09-12T08:03:59.230Z,965.71
2022-09-12T08:04:49.215Z,965.67
2022-09-12T08:05:39.194Z,965.71
2022-09-12T08:06:29.192Z,965.68
2022-09-12T08:07:19.200Z,965.71
2022-09-12T08:08:09.166Z,965.70
2022-09-12T08:08:59.146Z,965.76
2022-09-12T08:09:49.137Z,965.73
2022-09-12T08:10:39.145Z,965.71
2022-09-12T08:11:29.118Z,965.72
2022-09-12T08:12:19.145Z,965.75
2022-09-12T08:13:10.789Z,965.68
2022-09-12T08:13:59.149Z,965.69
2022-09-12T08:14:49.088Z,965.68
2022-09-12T08:15:39.132Z,965.70
2022-09-12T08:16:29.077Z,965.71
2022-09-12T08:17:19.089Z,965.72
2022-09-12T08:18:09.060Z,965.69
2022-09-12T08:18:59.057Z,965.71
2022-09-12T08:19:49.043Z,965.69
2022-09-12T08:20:39.020Z,965.67
2022-09-12T08:21:29.003Z,965.68
2022-09-12T08:22:19.015Z,965.70
2022-09-12T08:23:09.024Z,965.71
2022-09-12T08:23:58.986Z,965.70
2022-09-12T08:24:48.986Z,965.70
2022-09-12T08:25:38.957Z,965.72
2022-09-12T08:26:28.955Z,965.69
2022-09-12T08:27:18.977Z,965.69
2022-09-12T08:28:08.936Z,965.68
2022-09-12T08:28:58.927Z,965.68
2022-09-12T08:29:48.916Z,965.66
2022-09-12T08:30:38.958Z,965.69
2022-09-12T08:31:28.897Z,965.73
2022-09-12T08:32:18.918Z,965.68
2022-09-12T08:33:08.884Z,965.65
2022-09-12T08:33:58.882Z,965.66
2022-09-12T08:34:48.862Z,965.66
2022-09-12T08:35:38.856Z,965.65
2022-09-12T08:36:28.836Z,965.63
2022-09-12T08:37:18.858Z,965.63
2022-09-12T08:38:08.815Z,965.66
2022-09-12T08:39:00.200Z,965.67
2022-09-12T08:39:48.835Z,965.66
2022-09-12T08:40:38.804Z,965.60
2022-09-12T08:41:28.777Z,965.63
2022-09-12T08:42:18.811Z,965.60
2022-09-12T08:43:08.768Z,965.52
2022-09-12T08:43:58.748Z,965.52
2022-09-12T08:44:48.745Z,965.52
2022-09-12T08:45:38.768Z,965.53
2022-09-12T08:46:28.814Z,965.52
2022-09-12T08:47:18.729Z,965.54
2022-09-12T08:48:08.693Z,965.52
2022-09-12T08:48:58.710Z,965.52
2022-09-12T08:49:48.674Z,965.55
2022-09-12T08:50:38.674Z,965.54
2022-09-12T08:51:28.667Z,965.52
2022-09-12T08:52:18.712Z,965.53
2022-09-12T08:53:08.644Z,965.49
2022-09-12T08:53:58.660Z,965.49
2022-09-12T08:54:48.644Z,965.45
2022-09-12T08:55:38.637Z,965.47
2022-09-12T08:56:31.680Z,965.45
2022-09-12T08:57:18.611Z,965.45
2022-09-12T08:58:08.589Z,965.45
2022-09-12T08:58:58.597Z,965.42
2022-09-12T08:59:48.584Z,965.45
2022-09-12T09:00:38.556Z,965.45
2022-09-12T09:01:28.567Z,965.47
2022-09-12T09:02:18.603Z,965.47
2022-09-12T09:03:08.543Z,965.46
2022-09-12T09:03:58.535Z,965.43
2022-09-12T09:04:48.515Z,965.41
2022-09-12T09:05:38.503Z,965.44
2022-09-12T09:06:28.495Z,965.44
2022-09-12T09:07:18.494Z,965.44
2022-09-12T09:08:08.485Z,965.41
2022-09-12T09:08:58.467Z,965.39
2022-09-12T09:09:48.456Z,965.41
2022-09-12T09:10:38.465Z,965.36
2022-09-12T09:11:28.446Z,965.42
2022-09-12T09:12:18.455Z,965.39
2022-09-12T09:13:08.415Z,965.40
2022-09-12T09:14:00.868Z,965.39
2022-09-12T09:14:49.429Z,965.39
2022-09-12T09:15:38.452Z,965.39
2022-09-12T09:16:28.376Z,965.41
2022-09-12T09:17:18.404Z,965.43
2022-09-12T09:18:08.362Z,965.44
2022-09-12T09:18:58.389Z,965.44
2022-09-12T09:19:50.839Z,965.42
2022-09-12T09:20:38.335Z,965.46
2022-09-12T09:21:28.338Z,965.39
2022-09-12T09:22:18.353Z,965.37
2022-09-12T09:23:08.312Z,965.34
2022-09-12T09:23:58.306Z,965.31
2022-09-12T09:24:48.282Z,965.27
2022-09-12T09:25:38.302Z,965.30
2022-09-12T09:26:28.273Z,965.30
2022-09-12T09:27:39.490Z,965.29
2022-09-12T09:28:09.253Z,965.27
2022-09-12T09:28:58.253Z,965.28
2022-09-12T09:29:48.239Z,965.22
2022-09-12T09:30:38.236Z,965.22
2022-09-12T09:31:28.359Z,965.23
2022-09-12T09:32:18.221Z,965.21
2022-09-12T09:33:08.206Z,965.24
2022-09-12T09:33:58.193Z,965.18
2022-09-12T09:34:48.164Z,965.22
2022-09-12T09:35:38.164Z,965.20
2022-09-12T09:36:28.153Z,965.18
2022-09-12T09:37:18.173Z,965.20
2022-09-12T09:38:08.155Z,965.20
2022-09-12T09:38:58.136Z,965.19
2022-09-12T09:39:48.165Z,965.17
2022-09-12T09:40:38.105Z,965.16
2022-09-12T09:41:28.106Z,965.18
2022-09-12T09:42:18.126Z,965.08
2022-09-12T09:43:08.092Z,965.10
2022-09-12T09:43:58.101Z,965.07
2022-09-12T09:44:48.086Z,965.07
2022-09-12T09:45:38.048Z,965.07
2022-09-12T09:46:28.094Z,965.04
2022-09-12T09:47:18.058Z,965.08
2022-09-12T09:48:08.041Z,965.09
2022-09-12T09:48:58.009Z,965.08
2022-09-12T09:49:48.022Z,965.08
2022-09-12T09:50:38.003Z,965.02
2022-09-12T09:51:27.990Z,965.03
2022-09-12T09:52:18.009Z,965.03
2022-09-12T09:53:07.984Z,964.99
2022-09-12T09:53:57.970Z,965.02
2022-09-12T09:54:47.963Z,965.03
2022-09-12T09:55:37.937Z,964.99
2022-09-12T09:56:27.966Z,965.00
2022-09-12T09:57:17.925Z,965.01
2022-09-12T09:58:07.936Z,964.99
2022-09-12T09:58:57.901Z,965.03
2022-09-12T09:59:47.906Z,965.05
2022-09-12T10:00:37.883Z,964.97
2022-09-12T10:01:27.919Z,965.00
2022-09-12T10:02:21.830Z,964.95
2022-09-12T10:03:13.183Z,964.93
2022-09-12T10:03:57.877Z,964.93
2022-09-12T10:04:47.833Z,964.95
2022-09-12T10:05:37.827Z,964.92
2022-09-12T10:06:27.848Z,964.94
2022-09-12T10:07:17.804Z,964.88
2022-09-12T10:08:07.812Z,964.83
2022-09-12T10:08:57.785Z,964.86
2022-09-12T10:09:47.781Z,964.85
2022-09-12T10:10:37.791Z,964.88
2022-09-12T10:11:27.785Z,964.93
2022-09-12T10:12:17.772Z,964.87
2022-09-12T10:13:07.753Z,964.90
2022-09-12T10:13:57.743Z,964.90
2022-09-12T10:14:47.743Z,964.87
2022-09-12T10:15:37.765Z,964.88
2022-09-12T10:16:27.743Z,964.82
2022-09-12T10:17:17.702Z,964.84
2022-09-12T10:18:07.703Z,964.85
2022-09-12T10:18:57.695Z,964.81
2022-09-12T10:20:04.470Z,964.79
2022-09-12T10:20:38.682Z,964.78
2022-09-12T10:21:27.692Z,964.79
2022-09-12T10:22:17.664Z,964.75
2022-09-12T10:23:07.634Z,964.75
2022-09-12T10:23:57.646Z,964.77
2022-09-12T10:24:47.621Z,964.73